createdAt,value
2022-11-16T04:11:18.759Z,8.31
2022-11-16T04:14:43.068Z,8.31
2022-11-16T04:18:04.823Z,7.65
2022-11-16T04:21:36.048Z,7.67
2022-11-16T04:24:40.675Z,7.72
2022-11-16T04:28:01.803Z,7.66
2022-11-16T04:31:23.474Z,7.69
2022-11-16T04:34:45.225Z,7.83
2022-11-16T04:37:50.406Z,7.79
2022-11-16T04:40:53.037Z,7.89
2022-11-16T04:43:58.184Z,7.91
2022-11-16T04:47:06.819Z,7.93
2022-11-16T04:50:09.155Z,7.88
2022-11-16T04:53:11.659Z,7.79
2022-11-16T04:56:14.298Z,7.75
2022-11-16T04:59:16.766Z,7.72
2022-11-16T05:02:19.350Z,7.74
2022-11-16T05:05:22.680Z,7.84
2022-11-16T05:08:25.509Z,7.90
2022-11-16T05:11:28.388Z,7.91
2022-11-16T05:14:30.691Z,7.94
2022-11-16T05:17:33.748Z,7.97
2022-11-16T05:20:54.462Z,7.96
2022-11-16T05:24:15.906Z,7.84
2022-11-16T05:27:19.483Z,7.93
2022-11-16T05:30:22.922Z,8.00
2022-11-16T05:33:25.118Z,7.97
2022-11-16T05:36:27.557Z,7.97
2022-11-16T05:39:30.355Z,7.97
2022-11-16T05:42:33.181Z,7.86
2022-11-16T05:45:36.599Z,7.82
2022-11-16T05:48:39.411Z,7.81
2022-11-16T05:51:43.504Z,7.73
2022-11-16T05:54:45.979Z,7.87
2022-11-16T05:57:48.110Z,7.84
2022-11-16T06:00:51.131Z,7.94
2022-11-16T06:03:53.945Z,7.87
2022-11-16T06:06:56.170Z,7.88
2022-11-16T06:10:01.159Z,7.77
2022-11-16T06:13:03.472Z,7.74
2022-11-16T06:16:06.366Z,7.72
2022-11-16T06:19:09.224Z,7.73
2022-11-16T06:22:12.172Z,7.84
2022-11-16T06:25:14.388Z,7.89
2022-11-16T06:28:16.939Z,7.80
2022-11-16T06:31:19.040Z,7.89
2022-11-16T06:34:21.572Z,7.95
2022-11-16T06:37:23.697Z,8.04
2022-11-16T06:40:26.147Z,8.06
2022-11-16T06:43:28.756Z,8.11
2022-11-16T06:46:32.225Z,7.88
2022-11-16T06:49:34.433Z,7.78
2022-11-16T06:52:37.188Z,7.91
2022-11-16T06:55:39.559Z,8.03
2022-11-16T06:58:43.001Z,8.08
2022-11-16T07:01:45.638Z,8.01
2022-11-16T07:04:48.620Z,8.00
2022-11-16T07:07:55.233Z,7.99
2022-11-16T07:11:04.281Z,8.09
2022-11-16T07:14:08.378Z,8.09
2022-11-16T07:17:10.950Z,8.04
2022-11-16T07:20:13.370Z,8.11
2022-11-16T07:23:15.991Z,8.11
2022-11-16T07:26:19.584Z,8.16
2022-11-16T07:29:22.665Z,8.21
2022-11-16T07:32:35.641Z,8.19
2022-11-16T07:35:38.321Z,8.31
2022-11-16T07:38:40.871Z,8.22
2022-11-16T07:41:45.096Z,8.34
2022-11-16T07:44:47.751Z,8.35
2022-11-16T07:47:52.352Z,8.47
2022-11-16T07:51:03.873Z,8.49
2022-11-16T07:54:06.871Z,8.45
2022-11-16T07:57:08.945Z,8.50
2022-11-16T08:00:11.804Z,8.48
2022-11-16T08:03:18.195Z,8.58
2022-11-16T08:06:27.420Z,8.50
2022-11-16T08:09:29.890Z,8.55
2022-11-16T08:12:33.483Z,8.51
2022-11-16T08:15:36.062Z,8.38
2022-11-16T08:18:40.493Z,8.29
2022-11-16T08:21:43.037Z,8.25
2022-11-16T08:24:45.408Z,8.39
2022-11-16T08:27:47.757Z,8.52
2022-11-16T08:30:53.993Z,8.49
2022-11-16T08:33:56.780Z,8.51
2022-11-16T08:36:59.265Z,8.35
2022-11-16T08:40:03.510Z,8.41
2022-11-16T08:43:08.136Z,8.52
2022-11-16T08:46:11.151Z,8.66
2022-11-16T08:49:14.597Z,8.57
2022-11-16T08:52:16.879Z,8.49
2022-11-16T08:55:19.237Z,8.64
2022-11-16T08:58:21.475Z,8.72
2022-11-16T09:01:26.443Z,8.68
2022-11-16T09:04:32.737Z,8.58
2022-11-16T09:07:39.825Z,8.59
2022-11-16T09:10:41.904Z,8.77
2022-11-16T09:13:46.129Z,8.66
2022-11-16T09:16:48.232Z,8.73
2022-11-16T09:19:50.596Z,8.71
2022-11-16T09:22:52.649Z,8.61
2022-11-16T09:25:54.990Z,8.65
2022-11-16T09:28:59.869Z,8.68
2022-11-16T09:32:02.365Z,8.79
2022-11-16T09:35:04.671Z,8.86
2022-11-16T09:38:09.775Z,8.89
2022-11-16T09:41:47.200Z,8.93
2022-11-16T09:45:01.304Z,8.85
2022-11-16T09:48:06.550Z,8.76
2022-11-16T09:51:14.168Z,8.74
2022-11-16T09:54:20.571Z,8.79
2022-11-16T09:57:31.190Z,8.90
2022-11-16T10:00:35.621Z,8.80
2022-11-16T10:03:42.750Z,8.85
2022-11-16T10:06:51.318Z,8.97
2022-11-16T10:09:55.988Z,9.01
2022-11-16T10:13:14.654Z,9.00
2022-11-16T10:16:17.182Z,9.10
2022-11-16T10:19:38.347Z,9.13
2022-11-16T10:22:50.064Z,9.09
2022-11-16T10:26:02.548Z,8.96
2022-11-16T10:29:08.542Z,8.99
2022-11-16T10:32:18.396Z,9.15
2022-11-16T10:35:42.072Z,9.14
2022-11-16T10:38:44.520Z,9.15
2022-11-16T10:41:50.553Z,9.14
2022-11-16T10:45:11.374Z,9.14
2022-11-16T10:48:24.121Z,9.29
2022-11-16T10:51:26.314Z,9.33
2022-11-16T10:54:28.863Z,9.29
2022-11-16T10:57:55.654Z,9.18
2022-11-16T11:00:59.121Z,9.17
2022-11-16T11:04:30.261Z,9.22
2022-11-16T11:07:39.668Z,9.32
2022-11-16T11:10:42.476Z,9.40
2022-11-16T11:13:45.044Z,9.45
2022-11-16T11:16:52.778Z,9.40
2022-11-16T11:20:07.891Z,9.17
2022-11-16T11:23:23.517Z,9.13
2022-11-16T11:26:40.043Z,9.08
2022-11-16T11:29:43.278Z,9.04
2022-11-16T11:32:47.009Z,9.01
2022-11-16T11:36:06.347Z,8.99
2022-11-16T11:39:11.515Z,9.04
2022-11-16T11:42:13.524Z,9.03
2022-11-16T11:45:15.878Z,8.99
2022-11-16T11:48:29.644Z,9.04
2022-11-16T11:51:40.504Z,9.08
2022-11-16T11:54:49.164Z,8.98
2022-11-16T11:57:55.633Z,9.11
2022-11-16T12:01:24.841Z,9.23
2022-11-16T12:05:05.896Z,9.24
2022-11-16T12:08:32.575Z,9.35
2022-11-16T12:11:59.692Z,9.35
2022-11-16T12:15:22.924Z,9.29
2022-11-16T12:18:41.093Z,9.23
2022-11-16T12:22:05.845Z,9.20
2022-11-16T12:25:27.787Z,9.21
2022-11-16T12:28:51.094Z,9.25
2022-11-16T12:32:06.284Z,9.22
2022-11-16T12:35:43.805Z,9.26
2022-11-16T12:38:55.080Z,9.09
2022-11-16T12:42:05.806Z,9.14
2022-11-16T12:45:32.459Z,9.08
2022-11-16T12:48:49.504Z,9.16
2022-11-16T12:52:01.600Z,9.21
2022-11-16T12:58:55.120Z,9.08
2022-11-16T13:02:16.057Z,9.01
2022-11-16T13:05:34.049Z,9.00
2022-11-16T13:08:58.983Z,8.97
2022-11-16T13:12:05.195Z,8.96
2022-11-16T13:15:19.074Z,8.89
2022-11-16T13:18:23.123Z,9.01
2022-11-16T13:21:35.712Z,9.01
2022-11-16T13:24:49.918Z,9.07
2022-11-16T13:28:42.524Z,8.96
2022-11-16T13:32:07.097Z,8.95
2022-11-16T13:35:15.466Z,8.99
2022-11-16T13:38:52.135Z,9.05
2022-11-16T13:42:14.464Z,9.07
2022-11-16T13:45:21.919Z,9.10
2022-11-16T13:48:34.499Z,9.13
2022-11-16T13:51:37.244Z,9.04
2022-11-16T13:54:45.842Z,9.03
2022-11-16T13:57:54.743Z,8.90
2022-11-16T14:01:04.499Z,8.91
2022-11-16T14:04:41.962Z,8.92
2022-11-16T14:07:50.500Z,8.85
2022-11-16T14:10:52.871Z,8.85
2022-11-16T14:13:55.473Z,8.80
2022-11-16T14:16:57.840Z,8.88
2022-11-16T14:19:59.928Z,8.88
2022-11-16T14:23:26.801Z,8.74
2022-11-16T14:27:09.409Z,8.64
2022-11-16T14:30:24.541Z,8.72
2022-11-16T14:33:35.972Z,8.71
2022-11-16T14:36:44.942Z,8.62
2022-11-16T14:39:48.381Z,8.66
2022-11-16T14:43:15.261Z,8.64
2022-11-16T14:46:35.031Z,8.60
2022-11-16T14:49:37.846Z,8.56
2022-11-16T14:52:45.065Z,8.46
2022-11-16T14:55:47.397Z,8.43
2022-11-16T14:58:56.968Z,8.45
2022-11-16T15:02:23.738Z,8.49
2022-11-16T15:05:35.420Z,8.59
2022-11-16T15:08:45.182Z,8.64
2022-11-16T15:12:07.984Z,8.56
2022-11-16T15:15:10.241Z,8.48
2022-11-16T15:18:17.385Z,8.53
2022-11-16T15:21:23.764Z,8.54
2022-11-16T15:24:31.413Z,8.47
2022-11-16T15:27:38.589Z,8.58
2022-11-16T15:30:41.227Z,8.61
2022-11-16T15:33:45.893Z,8.58
2022-11-16T15:36:48.790Z,8.57
2022-11-16T15:39:51.805Z,8.55
2022-11-16T15:42:54.261Z,8.55
2022-11-16T15:45:57.761Z,8.51
2022-11-16T15:49:00.396Z,8.46
2022-11-16T15:52:03.056Z,8.43
2022-11-16T15:55:05.524Z,8.44
2022-11-16T15:58:25.721Z,8.43
2022-11-16T16:01:30.209Z,8.40
2022-11-16T16:04:32.705Z,8.46
2022-11-16T16:07:39.531Z,8.49
2022-11-16T16:10:42.176Z,8.52
2022-11-16T16:13:56.546Z,8.51
2022-11-16T16:17:00.535Z,8.50
2022-11-16T16:20:05.655Z,8.55
2022-11-16T16:23:17.564Z,8.52
2022-11-16T16:26:20.486Z,8.48
2022-11-16T16:29:22.785Z,8.51
